Terminal Aerodrome Forecast
Issued by NWS Shreveport, LA

Home | Current Version | Previous Version | Text Only | Print | Product List | Glossary On
Versions: 1 2 3 4 5 6 7 8 9 10 11 12 13 14 15 16 17 18 19 20 21 22 23 24 25 26 27 28 29 30 31 32 33 34 35 36 37 38 39 40 41 42 43 44 45 46
000
FTUS44 KSHV 201120
TAFTYR
TAF
KTYR 201120Z 2012/2112 16005KT P6SM SCT014
     FM201500 19008KT P6SM BKN015
     FM201700 17010KT P6SM SCT025 BKN035
     FM210000 15006KT P6SM BKN250
     FM211000 16004KT 6SM BR OVC050
     FM211100 15004KT 6SM BR OVC015=

USA.gov is the U.S. government's official web portal to all federal, state and local government web resources and services.